sensor_id;sensor_type;location;lat;lon;timestamp;P1;P2;P0
57049;PMS7003;42935;50.966;16.992;2023-05-24T00:00:52;19;16;10
57049;PMS7003;42935;50.966;16.992;2023-05-24T00:04:08;16;15;12
57049;PMS7003;42935;50.966;16.992;2023-05-24T00:07:26;17;15;11
57049;PMS7003;42935;50.966;16.992;2023-05-24T00:10:41;11;9;7
57049;PMS7003;42935;50.966;16.992;2023-05-24T00:13:58;9;7;5
57049;PMS7003;42935;50.966;16.992;2023-05-24T00:17:15;9;7;5
57049;PMS7003;42935;50.966;16.992;2023-05-24T00:20:32;7;5;4
57049;PMS7003;42935;50.966;16.992;2023-05-24T00:23:45;4;4;4
57049;PMS7003;42935;50.966;16.992;2023-05-24T00:27:01;7;6;5
57049;PMS7003;42935;50.966;16.992;2023-05-24T00:30:18;6;5;5
57049;PMS7003;42935;50.966;16.992;2023-05-24T00:33:36;6;6;5
57049;PMS7003;42935;50.966;16.992;2023-05-24T00:36:53;8;6;5
57049;PMS7003;42935;50.966;16.992;2023-05-24T00:40:45;6;4;3
57049;PMS7003;42935;50.966;16.992;2023-05-24T00:44:31;6;5;4
57049;PMS7003;42935;50.966;16.992;2023-05-24T00:47:48;7;5;4
57049;PMS7003;42935;50.966;16.992;2023-05-24T00:51:03;5;4;3
57049;PMS7003;42935;50.966;16.992;2023-05-24T00:54:16;4;4;4
57049;PMS7003;42935;50.966;16.992;2023-05-24T00:58:04;5;4;4
57049;PMS7003;42935;50.966;16.992;2023-05-24T01:01:20;3;3;2
57049;PMS7003;42935;50.966;16.992;2023-05-24T01:04:43;3;3;2
57049;PMS7003;42935;50.966;16.992;2023-05-24T01:28:57;4;2;1
57049;PMS7003;42935;50.966;16.992;2023-05-24T01:32:23;4;3;3
57049;PMS7003;42935;50.966;16.992;2023-05-24T01:35:47;2;2;2
57049;PMS7003;42935;50.966;16.992;2023-05-24T01:39:09;5;4;3
57049;PMS7003;42935;50.966;16.992;2023-05-24T01:46:02;7;5;3
57049;PMS7003;42935;50.966;16.992;2023-05-24T01:49:26;7;7;4
57049;PMS7003;42935;50.966;16.992;2023-05-24T01:52:49;9;6;4
57049;PMS7003;42935;50.966;16.992;2023-05-24T01:56:12;10;8;6
57049;PMS7003;42935;50.966;16.992;2023-05-24T01:59:31;9;8;5
57049;PMS7003;42935;50.966;16.992;2023-05-24T02:02:52;8;7;5
57049;PMS7003;42935;50.966;16.992;2023-05-24T02:06:13;14;12;7
57049;PMS7003;42935;50.966;16.992;2023-05-24T02:09:31;13;11;8
57049;PMS7003;42935;50.966;16.992;2023-05-24T02:12:48;9;8;5
57049;PMS7003;42935;50.966;16.992;2023-05-24T02:16:05;9;8;5
57049;PMS7003;42935;50.966;16.992;2023-05-24T02:19:28;8;6;5
57049;PMS7003;42935;50.966;16.992;2023-05-24T02:22:43;7;5;3
57049;PMS7003;42935;50.966;16.992;2023-05-24T02:26:00;10;6;4
57049;PMS7003;42935;50.966;16.992;2023-05-24T02:29:18;8;5;3
57049;PMS7003;42935;50.966;16.992;2023-05-24T02:32:40;10;8;6
57049;PMS7003;42935;50.966;16.992;2023-05-24T02:36:01;8;4;4
57049;PMS7003;42935;50.966;16.992;2023-05-24T02:39:18;9;7;5
57049;PMS7003;42935;50.966;16.992;2023-05-24T02:42:38;7;5;3
57049;PMS7003;42935;50.966;16.992;2023-05-24T02:46:03;7;6;4
57049;PMS7003;42935;50.966;16.992;2023-05-24T02:49:28;9;6;4
57049;PMS7003;42935;50.966;16.992;2023-05-24T02:52:50;12;7;5
57049;PMS7003;42935;50.966;16.992;2023-05-24T02:56:08;7;6;4
57049;PMS7003;42935;50.966;16.992;2023-05-24T02:59:31;7;4;3
57049;PMS7003;42935;50.966;16.992;2023-05-24T03:02:50;11;6;4
57049;PMS7003;42935;50.966;16.992;2023-05-24T03:06:09;8;5;4
57049;PMS7003;42935;50.966;16.992;2023-05-24T03:09:59;11;10;7
57049;PMS7003;42935;50.966;16.992;2023-05-24T03:13:16;8;5;3
57049;PMS7003;42935;50.966;16.992;2023-05-24T03:17:01;10;7;5
57049;PMS7003;42935;50.966;16.992;2023-05-24T03:20:18;6;6;3
57049;PMS7003;42935;50.966;16.992;2023-05-24T03:23:37;11;5;4
57049;PMS7003;42935;50.966;16.992;2023-05-24T03:26:54;9;8;5
57049;PMS7003;42935;50.966;16.992;2023-05-24T03:30:11;9;7;5
57049;PMS7003;42935;50.966;16.992;2023-05-24T03:33:29;10;7;5
57049;PMS7003;42935;50.966;16.992;2023-05-24T03:37:18;10;7;5
57049;PMS7003;42935;50.966;16.992;2023-05-24T03:40:39;7;6;4
57049;PMS7003;42935;50.966;16.992;2023-05-24T03:43:57;6;5;4
57049;PMS7003;42935;50.966;16.992;2023-05-24T03:47:16;8;3;3
57049;PMS7003;42935;50.966;16.992;2023-05-24T03:50:31;7;5;4
57049;PMS7003;42935;50.966;16.992;2023-05-24T03:53:47;5;4;4
57049;PMS7003;42935;50.966;16.992;2023-05-24T03:57:05;7;4;3
57049;PMS7003;42935;50.966;16.992;2023-05-24T04:00:28;5;4;3
57049;PMS7003;42935;50.966;16.992;2023-05-24T04:03:49;6;6;3
57049;PMS7003;42935;50.966;16.992;2023-05-24T04:07:09;8;5;3
57049;PMS7003;42935;50.966;16.992;2023-05-24T04:10:27;8;5;3
57049;PMS7003;42935;50.966;16.992;2023-05-24T04:13:44;5;4;4
57049;PMS7003;42935;50.966;16.992;2023-05-24T04:17:05;6;4;2
57049;PMS7003;42935;50.966;16.992;2023-05-24T04:20:23;4;3;2
57049;PMS7003;42935;50.966;16.992;2023-05-24T04:23:40;5;4;2
57049;PMS7003;42935;50.966;16.992;2023-05-24T04:26:59;5;4;2
57049;PMS7003;42935;50.966;16.992;2023-05-24T04:30:16;3;3;1
57049;PMS7003;42935;50.966;16.992;2023-05-24T04:33:35;5;3;2
57049;PMS7003;42935;50.966;16.992;2023-05-24T04:36:52;8;4;2
57049;PMS7003;42935;50.966;16.992;2023-05-24T04:40:06;6;4;3
57049;PMS7003;42935;50.966;16.992;2023-05-24T04:43:53;8;4;3
57049;PMS7003;42935;50.966;16.992;2023-05-24T04:47:09;5;3;2
57049;PMS7003;42935;50.966;16.992;2023-05-24T04:50:27;2;2;2
57049;PMS7003;42935;50.966;16.992;2023-05-24T04:53:45;3;3;3
57049;PMS7003;42935;50.966;16.992;2023-05-24T04:57:02;5;3;2
57049;PMS7003;42935;50.966;16.992;2023-05-24T05:00:22;3;1;1
57049;PMS7003;42935;50.966;16.992;2023-05-24T05:03:40;4;3;2
57049;PMS7003;42935;50.966;16.992;2023-05-24T05:07:00;2;1;1
57049;PMS7003;42935;50.966;16.992;2023-05-24T05:10:18;4;2;2
57049;PMS7003;42935;50.966;16.992;2023-05-24T05:13:39;4;3;2
57049;PMS7003;42935;50.966;16.992;2023-05-24T05:17:00;7;3;3
57049;PMS7003;42935;50.966;16.992;2023-05-24T05:20:17;4;2;2
57049;PMS7003;42935;50.966;16.992;2023-05-24T05:23:35;6;4;3
57049;PMS7003;42935;50.966;16.992;2023-05-24T05:26:56;6;3;2
57049;PMS7003;42935;50.966;16.992;2023-05-24T05:30:13;6;5;4
57049;PMS7003;42935;50.966;16.992;2023-05-24T05:33:32;7;6;5
57049;PMS7003;42935;50.966;16.992;2023-05-24T05:37:15;13;11;9
57049;PMS7003;42935;50.966;16.992;2023-05-24T05:40:33;13;11;7
57049;PMS7003;42935;50.966;16.992;2023-05-24T05:43:50;14;10;6
57049;PMS7003;42935;50.966;16.992;2023-05-24T05:47:05;14;11;8
57049;PMS7003;42935;50.966;16.992;2023-05-24T05:50:23;11;7;5
57049;PMS7003;42935;50.966;16.992;2023-05-24T05:53:40;11;10;7
57049;PMS7003;42935;50.966;16.992;2023-05-24T05:56:58;11;8;6
57049;PMS7003;42935;50.966;16.992;2023-05-24T06:00:17;10;9;6
57049;PMS7003;42935;50.966;16.992;2023-05-24T06:04:05;9;9;6
57049;PMS7003;42935;50.966;16.992;2023-05-24T06:07:23;7;5;4
57049;PMS7003;42935;50.966;16.992;2023-05-24T06:10:44;8;7;4
57049;PMS7003;42935;50.966;16.992;2023-05-24T06:14:01;7;5;3
57049;PMS7003;42935;50.966;16.992;2023-05-24T06:17:49;10;8;5
57049;PMS7003;42935;50.966;16.992;2023-05-24T06:21:09;10;7;5
57049;PMS7003;42935;50.966;16.992;2023-05-24T06:24:31;8;7;4
57049;PMS7003;42935;50.966;16.992;2023-05-24T06:27:49;9;7;5
57049;PMS7003;42935;50.966;16.992;2023-05-24T06:31:07;7;4;2
57049;PMS7003;42935;50.966;16.992;2023-05-24T06:34:56;7;6;4
57049;PMS7003;42935;50.966;16.992;2023-05-24T06:38:10;8;5;3
57049;PMS7003;42935;50.966;16.992;2023-05-24T06:41:27;5;5;3
57049;PMS7003;42935;50.966;16.992;2023-05-24T06:45:12;10;7;5
57049;PMS7003;42935;50.966;16.992;2023-05-24T06:48:34;9;7;5
57049;PMS7003;42935;50.966;16.992;2023-05-24T06:51:51;9;6;4
57049;PMS7003;42935;50.966;16.992;2023-05-24T06:55:07;8;7;4
57049;PMS7003;42935;50.966;16.992;2023-05-24T06:58:25;8;7;5
57049;PMS7003;42935;50.966;16.992;2023-05-24T07:01:44;12;7;6
57049;PMS7003;42935;50.966;16.992;2023-05-24T07:05:07;12;7;5
57049;PMS7003;42935;50.966;16.992;2023-05-24T07:08:28;11;8;6
57049;PMS7003;42935;50.966;16.992;2023-05-24T07:11:47;11;8;6
57049;PMS7003;42935;50.966;16.992;2023-05-24T07:15:40;23;19;13
57049;PMS7003;42935;50.966;16.992;2023-05-24T07:19:01;27;22;13
57049;PMS7003;42935;50.966;16.992;2023-05-24T07:22:48;29;25;14
57049;PMS7003;42935;50.966;16.992;2023-05-24T07:26:06;26;21;13
57049;PMS7003;42935;50.966;16.992;2023-05-24T07:29:28;25;22;13
57049;PMS7003;42935;50.966;16.992;2023-05-24T07:32:42;23;17;12
57049;PMS7003;42935;50.966;16.992;2023-05-24T07:36:00;23;20;13
57049;PMS7003;42935;50.966;16.992;2023-05-24T07:39:20;22;18;11
57049;PMS7003;42935;50.966;16.992;2023-05-24T07:42:42;26;19;12
57049;PMS7003;42935;50.966;16.992;2023-05-24T07:46:01;22;18;12
57049;PMS7003;42935;50.966;16.992;2023-05-24T07:49:16;22;19;12
57049;PMS7003;42935;50.966;16.992;2023-05-24T07:52:33;17;15;9
57049;PMS7003;42935;50.966;16.992;2023-05-24T07:56:00;19;16;11
57049;PMS7003;42935;50.966;16.992;2023-05-24T07:59:57;18;14;10
57049;PMS7003;42935;50.966;16.992;2023-05-24T08:04:00;19;16;10
57049;PMS7003;42935;50.966;16.992;2023-05-24T08:07:53;23;18;11
57049;PMS7003;42935;50.966;16.992;2023-05-24T08:11:08;18;14;10
57049;PMS7003;42935;50.966;16.992;2023-05-24T08:14:25;20;15;10
57049;PMS7003;42935;50.966;16.992;2023-05-24T08:17:42;19;15;11
57049;PMS7003;42935;50.966;16.992;2023-05-24T08:21:06;20;17;11
57049;PMS7003;42935;50.966;16.992;2023-05-24T08:24:23;16;14;10
57049;PMS7003;42935;50.966;16.992;2023-05-24T08:27:38;18;16;11
57049;PMS7003;42935;50.966;16.992;2023-05-24T08:30:55;20;15;11
57049;PMS7003;42935;50.966;16.992;2023-05-24T08:34:17;18;15;10
57049;PMS7003;42935;50.966;16.992;2023-05-24T08:37:33;13;11;7
57049;PMS7003;42935;50.966;16.992;2023-05-24T08:40:51;16;14;10
57049;PMS7003;42935;50.966;16.992;2023-05-24T08:44:13;19;13;9
57049;PMS7003;42935;50.966;16.992;2023-05-24T08:48:02;20;13;8
57049;PMS7003;42935;50.966;16.992;2023-05-24T08:51:25;18;15;10
57049;PMS7003;42935;50.966;16.992;2023-05-24T08:54:47;18;16;10
57049;PMS7003;42935;50.966;16.992;2023-05-24T08:58:07;17;12;9
57049;PMS7003;42935;50.966;16.992;2023-05-24T09:01:26;17;13;9
57049;PMS7003;42935;50.966;16.992;2023-05-24T09:04:45;25;16;11
57049;PMS7003;42935;50.966;16.992;2023-05-24T09:08:05;19;16;11
57049;PMS7003;42935;50.966;16.992;2023-05-24T09:11:21;15;14;8
57049;PMS7003;42935;50.966;16.992;2023-05-24T09:14:49;18;14;9
57049;PMS7003;42935;50.966;16.992;2023-05-24T09:18:12;17;14;10
57049;PMS7003;42935;50.966;16.992;2023-05-24T09:21:26;17;13;8
57049;PMS7003;42935;50.966;16.992;2023-05-24T09:24:42;13;13;9
57049;PMS7003;42935;50.966;16.992;2023-05-24T09:28:04;16;14;10
57049;PMS7003;42935;50.966;16.992;2023-05-24T09:35:24;17;13;9
57049;PMS7003;42935;50.966;16.992;2023-05-24T09:38:46;18;14;9
57049;PMS7003;42935;50.966;16.992;2023-05-24T09:42:07;24;18;11
57049;PMS7003;42935;50.966;16.992;2023-05-24T09:45:31;21;18;13
57049;PMS7003;42935;50.966;16.992;2023-05-24T09:52:13;17;15;11
57049;PMS7003;42935;50.966;16.992;2023-05-24T09:55:28;20;13;9
57049;PMS7003;42935;50.966;16.992;2023-05-24T09:58:46;18;13;10
57049;PMS7003;42935;50.966;16.992;2023-05-24T10:02:38;19;15;11
57049;PMS7003;42935;50.966;16.992;2023-05-24T10:06:03;19;12;10
57049;PMS7003;42935;50.966;16.992;2023-05-24T10:09:30;17;14;10
57049;PMS7003;42935;50.966;16.992;2023-05-24T10:12:51;14;11;8
57049;PMS7003;42935;50.966;16.992;2023-05-24T10:16:30;14;13;10
57049;PMS7003;42935;50.966;16.992;2023-05-24T10:19:48;17;14;10
57049;PMS7003;42935;50.966;16.992;2023-05-24T10:23:03;14;12;9
57049;PMS7003;42935;50.966;16.992;2023-05-24T10:26:21;14;12;10
57049;PMS7003;42935;50.966;16.992;2023-05-24T10:33:15;19;15;11
57049;PMS7003;42935;50.966;16.992;2023-05-24T10:36:30;22;17;11
57049;PMS7003;42935;50.966;16.992;2023-05-24T10:39:46;18;14;10
57049;PMS7003;42935;50.966;16.992;2023-05-24T10:43:10;20;15;10
57049;PMS7003;42935;50.966;16.992;2023-05-24T10:46:25;17;13;9
57049;PMS7003;42935;50.966;16.992;2023-05-24T10:53:37;11;10;8
57049;PMS7003;42935;50.966;16.992;2023-05-24T10:56:59;15;13;8
57049;PMS7003;42935;50.966;16.992;2023-05-24T11:03:45;16;14;11
57049;PMS7003;42935;50.966;16.992;2023-05-24T11:07:08;16;14;11
57049;PMS7003;42935;50.966;16.992;2023-05-24T11:10:30;16;14;11
57049;PMS7003;42935;50.966;16.992;2023-05-24T11:13:55;14;12;9
57049;PMS7003;42935;50.966;16.992;2023-05-24T11:17:15;15;12;8
57049;PMS7003;42935;50.966;16.992;2023-05-24T11:20:41;15;12;8
57049;PMS7003;42935;50.966;16.992;2023-05-24T11:24:03;15;12;8
57049;PMS7003;42935;50.966;16.992;2023-05-24T11:27:17;9;8;6
57049;PMS7003;42935;50.966;16.992;2023-05-24T11:30:42;15;11;8
57049;PMS7003;42935;50.966;16.992;2023-05-24T11:34:01;15;12;9
57049;PMS7003;42935;50.966;16.992;2023-05-24T11:37:18;15;13;9
57049;PMS7003;42935;50.966;16.992;2023-05-24T11:40:36;13;12;9
57049;PMS7003;42935;50.966;16.992;2023-05-24T11:43:54;16;12;8
57049;PMS7003;42935;50.966;16.992;2023-05-24T11:47:18;16;13;10
57049;PMS7003;42935;50.966;16.992;2023-05-24T11:54:09;15;13;9
57049;PMS7003;42935;50.966;16.992;2023-05-24T11:57:26;14;12;9
57049;PMS7003;42935;50.966;16.992;2023-05-24T12:00:49;20;15;10
57049;PMS7003;42935;50.966;16.992;2023-05-24T12:04:09;18;14;11
57049;PMS7003;42935;50.966;16.992;2023-05-24T12:07:27;17;13;9
57049;PMS7003;42935;50.966;16.992;2023-05-24T12:10:42;17;12;9
57049;PMS7003;42935;50.966;16.992;2023-05-24T12:14:31;18;16;10
57049;PMS7003;42935;50.966;16.992;2023-05-24T12:17:53;17;13;9
57049;PMS7003;42935;50.966;16.992;2023-05-24T12:21:43;15;11;9
57049;PMS7003;42935;50.966;16.992;2023-05-24T12:24:59;15;11;8
57049;PMS7003;42935;50.966;16.992;2023-05-24T12:28:51;13;11;8
57049;PMS7003;42935;50.966;16.992;2023-05-24T12:32:39;15;12;10
57049;PMS7003;42935;50.966;16.992;2023-05-24T12:36:27;15;11;9
57049;PMS7003;42935;50.966;16.992;2023-05-24T12:39:51;17;10;8
57049;PMS7003;42935;50.966;16.992;2023-05-24T12:43:38;15;12;8
57049;PMS7003;42935;50.966;16.992;2023-05-24T12:47:04;18;12;9
57049;PMS7003;42935;50.966;16.992;2023-05-24T12:50:23;15;11;8
57049;PMS7003;42935;50.966;16.992;2023-05-24T12:53:41;16;11;9
57049;PMS7003;42935;50.966;16.992;2023-05-24T12:56:58;14;10;8
57049;PMS7003;42935;50.966;16.992;2023-05-24T13:00:24;17;13;8
57049;PMS7003;42935;50.966;16.992;2023-05-24T13:03:43;10;9;7
57049;PMS7003;42935;50.966;16.992;2023-05-24T13:07:02;10;9;6
57049;PMS7003;42935;50.966;16.992;2023-05-24T13:10:18;14;10;8
57049;PMS7003;42935;50.966;16.992;2023-05-24T13:13:36;12;10;7
57049;PMS7003;42935;50.966;16.992;2023-05-24T13:16:54;12;9;7
57049;PMS7003;42935;50.966;16.992;2023-05-24T13:20:08;11;10;8
57049;PMS7003;42935;50.966;16.992;2023-05-24T13:23:25;11;9;7
57049;PMS7003;42935;50.966;16.992;2023-05-24T13:26:44;11;10;8
57049;PMS7003;42935;50.966;16.992;2023-05-24T13:29:58;14;12;9
57049;PMS7003;42935;50.966;16.992;2023-05-24T13:33:49;12;10;7
57049;PMS7003;42935;50.966;16.992;2023-05-24T13:37:07;15;12;9
57049;PMS7003;42935;50.966;16.992;2023-05-24T13:40:33;11;9;7
57049;PMS7003;42935;50.966;16.992;2023-05-24T13:43:51;11;8;7
57049;PMS7003;42935;50.966;16.992;2023-05-24T13:47:07;11;8;7
57049;PMS7003;42935;50.966;16.992;2023-05-24T13:50:25;7;7;6
57049;PMS7003;42935;50.966;16.992;2023-05-24T13:53:42;10;8;6
57049;PMS7003;42935;50.966;16.992;2023-05-24T13:57:00;10;7;6
57049;PMS7003;42935;50.966;16.992;2023-05-24T14:00:21;7;7;6
57049;PMS7003;42935;50.966;16.992;2023-05-24T14:03:38;8;8;7
57049;PMS7003;42935;50.966;16.992;2023-05-24T14:06:51;9;7;6
57049;PMS7003;42935;50.966;16.992;2023-05-24T14:10:10;10;8;6
57049;PMS7003;42935;50.966;16.992;2023-05-24T14:13:28;9;8;5
57049;PMS7003;42935;50.966;16.992;2023-05-24T14:16:45;8;6;5
57049;PMS7003;42935;50.966;16.992;2023-05-24T14:20:10;11;8;6
57049;PMS7003;42935;50.966;16.992;2023-05-24T14:23:29;11;8;7
57049;PMS7003;42935;50.966;16.992;2023-05-24T14:26:49;9;8;6
57049;PMS7003;42935;50.966;16.992;2023-05-24T14:30:08;8;7;6
57049;PMS7003;42935;50.966;16.992;2023-05-24T14:33:58;11;9;7
57049;PMS7003;42935;50.966;16.992;2023-05-24T14:37:10;11;8;7
57049;PMS7003;42935;50.966;16.992;2023-05-24T14:40:28;11;9;7
57049;PMS7003;42935;50.966;16.992;2023-05-24T14:43:51;10;9;7
57049;PMS7003;42935;50.966;16.992;2023-05-24T14:47:09;10;9;7
57049;PMS7003;42935;50.966;16.992;2023-05-24T14:50:25;12;10;7
57049;PMS7003;42935;50.966;16.992;2023-05-24T14:53:43;10;9;8
57049;PMS7003;42935;50.966;16.992;2023-05-24T14:57:31;14;10;8
57049;PMS7003;42935;50.966;16.992;2023-05-24T15:00:48;9;9;7
57049;PMS7003;42935;50.966;16.992;2023-05-24T15:04:07;12;10;7
57049;PMS7003;42935;50.966;16.992;2023-05-24T15:07:25;13;9;8
57049;PMS7003;42935;50.966;16.992;2023-05-24T15:10:42;10;9;7
57049;PMS7003;42935;50.966;16.992;2023-05-24T15:14:00;9;7;6
57049;PMS7003;42935;50.966;16.992;2023-05-24T15:17:48;7;7;6
57049;PMS7003;42935;50.966;16.992;2023-05-24T15:21:05;8;8;6
57049;PMS7003;42935;50.966;16.992;2023-05-24T15:24:23;9;9;8
57049;PMS7003;42935;50.966;16.992;2023-05-24T15:27:39;10;10;8
57049;PMS7003;42935;50.966;16.992;2023-05-24T15:30:58;14;10;7
57049;PMS7003;42935;50.966;16.992;2023-05-24T15:34:18;7;7;6
57049;PMS7003;42935;50.966;16.992;2023-05-24T15:37:37;10;8;6
57049;PMS7003;42935;50.966;16.992;2023-05-24T15:41:28;12;8;7
57049;PMS7003;42935;50.966;16.992;2023-05-24T15:44:47;15;12;9
57049;PMS7003;42935;50.966;16.992;2023-05-24T15:48:32;11;9;7
57049;PMS7003;42935;50.966;16.992;2023-05-24T15:51:48;11;8;7
57049;PMS7003;42935;50.966;16.992;2023-05-24T15:55:08;10;8;6
57049;PMS7003;42935;50.966;16.992;2023-05-24T15:58:25;13;10;8
57049;PMS7003;42935;50.966;16.992;2023-05-24T16:01:38;10;10;8
57049;PMS7003;42935;50.966;16.992;2023-05-24T16:04:52;11;11;8
57049;PMS7003;42935;50.966;16.992;2023-05-24T16:08:07;11;9;7
57049;PMS7003;42935;50.966;16.992;2023-05-24T16:11:30;12;9;6
57049;PMS7003;42935;50.966;16.992;2023-05-24T16:14:44;14;8;7
57049;PMS7003;42935;50.966;16.992;2023-05-24T16:17:59;10;9;7
57049;PMS7003;42935;50.966;16.992;2023-05-24T16:21:19;10;8;7
57049;PMS7003;42935;50.966;16.992;2023-05-24T16:24:40;11;9;7
57049;PMS7003;42935;50.966;16.992;2023-05-24T16:27:59;10;8;7
57049;PMS7003;42935;50.966;16.992;2023-05-24T16:31:15;10;8;7
57049;PMS7003;42935;50.966;16.992;2023-05-24T16:34:30;9;8;6
57049;PMS7003;42935;50.966;16.992;2023-05-24T16:37:45;9;8;6
57049;PMS7003;42935;50.966;16.992;2023-05-24T16:41:04;9;7;6
57049;PMS7003;42935;50.966;16.992;2023-05-24T16:44:18;10;9;7
57049;PMS7003;42935;50.966;16.992;2023-05-24T16:47:36;9;7;6
57049;PMS7003;42935;50.966;16.992;2023-05-24T16:50:59;10;8;7
57049;PMS7003;42935;50.966;16.992;2023-05-24T16:54:17;9;7;5
57049;PMS7003;42935;50.966;16.992;2023-05-24T16:57:36;9;9;7
57049;PMS7003;42935;50.966;16.992;2023-05-24T17:00:55;9;7;5
57049;PMS7003;42935;50.966;16.992;2023-05-24T17:04:13;8;7;5
57049;PMS7003;42935;50.966;16.992;2023-05-24T17:07:27;11;8;7
57049;PMS7003;42935;50.966;16.992;2023-05-24T17:11:13;9;7;6
57049;PMS7003;42935;50.966;16.992;2023-05-24T17:14:31;9;6;6
57049;PMS7003;42935;50.966;16.992;2023-05-24T17:18:17;8;7;6
57049;PMS7003;42935;50.966;16.992;2023-05-24T17:22:11;10;7;6
57049;PMS7003;42935;50.966;16.992;2023-05-24T17:25:56;9;8;7
57049;PMS7003;42935;50.966;16.992;2023-05-24T17:29:15;11;9;7
57049;PMS7003;42935;50.966;16.992;2023-05-24T17:32:32;12;9;7
57049;PMS7003;42935;50.966;16.992;2023-05-24T17:35:50;12;10;8
57049;PMS7003;42935;50.966;16.992;2023-05-24T17:39:10;14;11;8
57049;PMS7003;42935;50.966;16.992;2023-05-24T17:42:25;12;10;7
57049;PMS7003;42935;50.966;16.992;2023-05-24T17:45:42;12;11;8
57049;PMS7003;42935;50.966;16.992;2023-05-24T17:48:59;14;12;8
57049;PMS7003;42935;50.966;16.992;2023-05-24T17:52:47;12;10;7
57049;PMS7003;42935;50.966;16.992;2023-05-24T17:56:08;10;8;7
57049;PMS7003;42935;50.966;16.992;2023-05-24T17:59:25;15;11;8
57049;PMS7003;42935;50.966;16.992;2023-05-24T18:02:41;15;13;10
57049;PMS7003;42935;50.966;16.992;2023-05-24T18:05:59;16;12;9
57049;PMS7003;42935;50.966;16.992;2023-05-24T18:09:17;14;12;9
57049;PMS7003;42935;50.966;16.992;2023-05-24T18:12:36;11;10;8
57049;PMS7003;42935;50.966;16.992;2023-05-24T18:15:54;15;12;9
57049;PMS7003;42935;50.966;16.992;2023-05-24T18:19:14;13;11;9
57049;PMS7003;42935;50.966;16.992;2023-05-24T18:22:39;15;14;10
57049;PMS7003;42935;50.966;16.992;2023-05-24T18:26:28;17;15;11
57049;PMS7003;42935;50.966;16.992;2023-05-24T18:29:45;18;16;12
57049;PMS7003;42935;50.966;16.992;2023-05-24T18:33:04;16;15;10
57049;PMS7003;42935;50.966;16.992;2023-05-24T18:36:21;16;15;12
57049;PMS7003;42935;50.966;16.992;2023-05-24T18:39:37;23;17;12
57049;PMS7003;42935;50.966;16.992;2023-05-24T18:42:54;17;13;9
57049;PMS7003;42935;50.966;16.992;2023-05-24T18:46:12;19;14;11
57049;PMS7003;42935;50.966;16.992;2023-05-24T18:49:58;15;14;11
57049;PMS7003;42935;50.966;16.992;2023-05-24T18:53:13;14;12;9
57049;PMS7003;42935;50.966;16.992;2023-05-24T18:56:33;13;11;8
57049;PMS7003;42935;50.966;16.992;2023-05-24T18:59:54;11;10;8
57049;PMS7003;42935;50.966;16.992;2023-05-24T19:03:15;14;13;11
57049;PMS7003;42935;50.966;16.992;2023-05-24T19:06:32;12;10;8
57049;PMS7003;42935;50.966;16.992;2023-05-24T19:09:47;18;14;10
57049;PMS7003;42935;50.966;16.992;2023-05-24T19:13:00;19;17;12
57049;PMS7003;42935;50.966;16.992;2023-05-24T19:16:16;16;13;10
57049;PMS7003;42935;50.966;16.992;2023-05-24T19:19:32;16;12;9
57049;PMS7003;42935;50.966;16.992;2023-05-24T19:22:47;15;13;10
57049;PMS7003;42935;50.966;16.992;2023-05-24T19:26:12;24;20;15
57049;PMS7003;42935;50.966;16.992;2023-05-24T19:30:13;26;20;12
57049;PMS7003;42935;50.966;16.992;2023-05-24T19:33:36;21;18;13
57049;PMS7003;42935;50.966;16.992;2023-05-24T19:37:00;34;26;17
57049;PMS7003;42935;50.966;16.992;2023-05-24T19:40:18;21;18;13
57049;PMS7003;42935;50.966;16.992;2023-05-24T19:43:36;23;19;12
57049;PMS7003;42935;50.966;16.992;2023-05-24T19:47:22;24;19;13
57049;PMS7003;42935;50.966;16.992;2023-05-24T19:50:43;23;18;12
57049;PMS7003;42935;50.966;16.992;2023-05-24T19:54:00;21;16;11
57049;PMS7003;42935;50.966;16.992;2023-05-24T19:57:13;26;21;14
57049;PMS7003;42935;50.966;16.992;2023-05-24T20:00:31;26;20;14
57049;PMS7003;42935;50.966;16.992;2023-05-24T20:04:19;16;14;11
57049;PMS7003;42935;50.966;16.992;2023-05-24T20:07:37;21;16;11
57049;PMS7003;42935;50.966;16.992;2023-05-24T20:10:55;20;16;11
57049;PMS7003;42935;50.966;16.992;2023-05-24T20:14:18;18;15;11
57049;PMS7003;42935;50.966;16.992;2023-05-24T20:18:06;20;16;11
57049;PMS7003;42935;50.966;16.992;2023-05-24T20:21:24;17;14;11
57049;PMS7003;42935;50.966;16.992;2023-05-24T20:24:42;20;18;11
57049;PMS7003;42935;50.966;16.992;2023-05-24T20:28:00;14;11;8
57049;PMS7003;42935;50.966;16.992;2023-05-24T20:31:20;12;10;7
57049;PMS7003;42935;50.966;16.992;2023-05-24T20:34:42;13;10;8
57049;PMS7003;42935;50.966;16.992;2023-05-24T20:37:57;14;9;7
57049;PMS7003;42935;50.966;16.992;2023-05-24T20:41:13;16;9;7
57049;PMS7003;42935;50.966;16.992;2023-05-24T20:44:36;27;19;10
57049;PMS7003;42935;50.966;16.992;2023-05-24T20:47:55;28;23;15
57049;PMS7003;42935;50.966;16.992;2023-05-24T20:51:13;26;20;13
57049;PMS7003;42935;50.966;16.992;2023-05-24T20:54:34;25;21;13
57049;PMS7003;42935;50.966;16.992;2023-05-24T20:57:56;28;23;14
57049;PMS7003;42935;50.966;16.992;2023-05-24T21:01:19;24;17;12
57049;PMS7003;42935;50.966;16.992;2023-05-24T21:04:41;21;17;12
57049;PMS7003;42935;50.966;16.992;2023-05-24T21:07:57;20;18;13
57049;PMS7003;42935;50.966;16.992;2023-05-24T21:11:19;23;15;12
57049;PMS7003;42935;50.966;16.992;2023-05-24T21:14:36;21;15;10
57049;PMS7003;42935;50.966;16.992;2023-05-24T21:18:06;25;22;13
57049;PMS7003;42935;50.966;16.992;2023-05-24T21:21:31;22;16;12
57049;PMS7003;42935;50.966;16.992;2023-05-24T21:24:48;23;16;10
57049;PMS7003;42935;50.966;16.992;2023-05-24T21:28:13;17;15;11
57049;PMS7003;42935;50.966;16.992;2023-05-24T21:31:34;17;14;10
57049;PMS7003;42935;50.966;16.992;2023-05-24T21:34:51;18;16;11
57049;PMS7003;42935;50.966;16.992;2023-05-24T21:38:12;18;15;11
57049;PMS7003;42935;50.966;16.992;2023-05-24T21:41:29;22;16;12
57049;PMS7003;42935;50.966;16.992;2023-05-24T21:44:48;22;15;11
57049;PMS7003;42935;50.966;16.992;2023-05-24T21:48:10;18;14;11
57049;PMS7003;42935;50.966;16.992;2023-05-24T21:51:24;26;19;12
57049;PMS7003;42935;50.966;16.992;2023-05-24T21:54:48;21;18;12
57049;PMS7003;42935;50.966;16.992;2023-05-24T21:58:12;24;19;14
57049;PMS7003;42935;50.966;16.992;2023-05-24T22:01:30;20;17;11
57049;PMS7003;42935;50.966;16.992;2023-05-24T22:04:47;25;19;13
57049;PMS7003;42935;50.966;16.992;2023-05-24T22:08:05;19;16;11
57049;PMS7003;42935;50.966;16.992;2023-05-24T22:11:22;20;15;10
57049;PMS7003;42935;50.966;16.992;2023-05-24T22:14:44;19;14;10
57049;PMS7003;42935;50.966;16.992;2023-05-24T22:17:58;21;16;11
57049;PMS7003;42935;50.966;16.992;2023-05-24T22:21:22;19;17;11
57049;PMS7003;42935;50.966;16.992;2023-05-24T22:24:42;21;20;11
57049;PMS7003;42935;50.966;16.992;2023-05-24T22:28:08;18;14;10
57049;PMS7003;42935;50.966;16.992;2023-05-24T22:31:29;21;17;12
57049;PMS7003;42935;50.966;16.992;2023-05-24T22:34:54;22;18;12